createdAt,value
2022-08-18T00:03:56.937Z,1.00
2022-08-18T00:08:55.586Z,18.80
2022-08-18T00:14:01.519Z,1.00
2022-08-18T00:19:09.376Z,1.00
2022-08-18T00:24:13.881Z,1.00
2022-08-18T00:29:19.759Z,17.70
2022-08-18T00:34:25.177Z,1.00
2022-08-18T00:39:34.297Z,1.00
2022-08-18T00:44:39.479Z,1.00
2022-08-18T00:49:48.544Z,1.00
2022-08-18T00:54:55.982Z,26.60
2022-08-18T01:00:06.259Z,34.70
2022-08-18T01:05:18.201Z,1.00
2022-08-18T01:10:24.875Z,32.50
2022-08-18T01:15:30.787Z,22.70
2022-08-18T01:20:57.135Z,99.90
2022-08-18T01:26:04.746Z,1.50
2022-08-18T01:31:13.610Z,99.90
2022-08-18T01:36:21.770Z,99.90
2022-08-18T01:41:30.858Z,99.90
2022-08-18T01:46:36.213Z,99.90
2022-08-18T01:51:43.034Z,99.90
2022-08-18T01:56:49.238Z,99.90
2022-08-18T02:01:55.771Z,73.60
2022-08-18T02:07:04.235Z,99.90
2022-08-18T02:12:10.674Z,99.90
2022-08-18T02:17:16.131Z,99.90
2022-08-18T02:22:22.642Z,99.90
2022-08-18T02:27:28.531Z,99.90
2022-08-18T02:32:34.488Z,99.90
2022-08-18T02:37:42.241Z,99.90
2022-08-18T02:42:48.397Z,99.90
2022-08-18T02:47:55.280Z,99.90
2022-08-18T02:53:03.016Z,45.50
2022-08-18T02:58:08.865Z,99.90
2022-08-18T03:03:14.678Z,99.90
2022-08-18T03:08:22.174Z,99.90
2022-08-18T03:13:27.183Z,99.90
2022-08-18T03:18:32.376Z,99.90
2022-08-18T03:23:39.456Z,99.90
2022-08-18T03:28:47.203Z,99.90
2022-08-18T03:33:54.145Z,99.90
2022-08-18T03:39:00.375Z,99.90
2022-08-18T03:44:06.601Z,99.90
2022-08-18T03:49:12.813Z,99.90
2022-08-18T03:54:19.356Z,99.90
2022-08-18T03:59:27.661Z,33.20
2022-08-18T04:04:32.557Z,99.90
2022-08-18T04:09:39.641Z,99.90
2022-08-18T04:14:48.634Z,99.90
2022-08-18T04:19:57.467Z,99.90
2022-08-18T04:25:02.900Z,99.90
2022-08-18T04:30:09.210Z,89.10
2022-08-18T04:35:15.062Z,99.90
2022-08-18T04:40:25.058Z,99.90
2022-08-18T04:45:27.471Z,99.90
2022-08-18T04:50:32.717Z,99.90
2022-08-18T04:55:39.099Z,99.90
2022-08-18T05:00:45.533Z,99.90
2022-08-18T05:05:50.707Z,99.90
2022-08-18T05:11:04.095Z,99.90
2022-08-18T05:16:11.682Z,99.90
2022-08-18T05:21:16.287Z,99.90
2022-08-18T05:26:21.460Z,99.90
2022-08-18T05:31:28.497Z,99.90
2022-08-18T05:36:56.482Z,99.90
2022-08-18T05:42:14.136Z,99.90
2022-08-18T05:47:28.714Z,99.90
2022-08-18T05:52:36.955Z,99.90
2022-08-18T05:57:50.375Z,1.00
2022-08-18T06:03:04.746Z,1.00
2022-08-18T06:08:14.150Z,1.00
2022-08-18T06:13:20.472Z,1.00
2022-08-18T06:18:52.800Z,1.00
2022-08-18T06:24:19.454Z,1.00
2022-08-18T06:29:52.994Z,1.00
2022-08-18T06:35:04.092Z,1.00
2022-08-18T06:40:10.995Z,1.00
2022-08-18T06:45:18.911Z,1.00
2022-08-18T06:50:33.130Z,1.00
2022-08-18T06:55:47.382Z,1.00
2022-08-18T07:00:56.671Z,1.00
2022-08-18T07:06:14.528Z,1.00
2022-08-18T07:11:33.549Z,1.00
2022-08-18T07:16:57.860Z,1.00
2022-08-18T07:21:48.316Z,1.00
2022-08-18T07:27:15.729Z,1.00
2022-08-18T07:32:23.358Z,1.00
2022-08-18T07:37:34.594Z,1.00
2022-08-18T07:43:01.909Z,1.00
2022-08-18T07:48:37.577Z,99.90
2022-08-18T07:53:56.232Z,99.90
2022-08-18T07:59:07.460Z,99.90
2022-08-18T08:04:25.266Z,99.90
2022-08-18T08:09:51.919Z,99.90
2022-08-18T08:15:17.015Z,99.90
2022-08-18T08:20:33.764Z,99.90
2022-08-18T08:25:54.135Z,97.60
2022-08-18T08:31:37.638Z,98.10
2022-08-18T08:36:30.412Z,99.90
2022-08-18T08:42:00.400Z,99.90
2022-08-18T08:47:08.259Z,98.90
2022-08-18T08:52:20.878Z,97.50
2022-08-18T08:57:32.360Z,97.80
2022-08-18T09:02:48.826Z,97.00
2022-08-18T09:08:17.660Z,97.50
2022-08-18T09:13:29.391Z,99.90
2022-08-18T09:18:59.447Z,97.70
2022-08-18T09:24:11.021Z,96.80
2022-08-18T09:29:26.622Z,96.70
2022-08-18T09:34:51.819Z,96.80
2022-08-18T09:40:44.483Z,95.40
2022-08-18T09:45:36.734Z,93.90
2022-08-18T09:51:18.560Z,94.70
2022-08-18T09:56:54.506Z,93.70
2022-08-18T10:02:06.166Z,93.80
2022-08-18T10:07:24.917Z,93.30
2022-08-18T10:12:52.942Z,93.20
2022-08-18T10:18:20.452Z,92.90
2022-08-18T10:23:49.529Z,92.90
2022-08-18T10:28:58.810Z,91.30
2022-08-18T10:34:24.696Z,92.30
2022-08-18T10:39:22.648Z,91.50
2022-08-18T10:44:31.046Z,93.00
2022-08-18T10:49:38.338Z,91.50
2022-08-18T10:54:54.481Z,91.90
2022-08-18T11:00:13.255Z,90.70
2022-08-18T11:05:21.452Z,92.10
2022-08-18T11:11:06.463Z,90.10
2022-08-18T11:16:13.219Z,91.80
2022-08-18T11:21:42.633Z,91.80
2022-08-18T11:27:00.019Z,90.20
2022-08-18T11:32:11.939Z,87.20
2022-08-18T11:37:51.638Z,90.00
2022-08-18T11:42:57.768Z,84.90
2022-08-18T11:48:21.064Z,87.40
2022-08-18T11:53:35.314Z,86.70
2022-08-18T11:58:50.520Z,91.50
2022-08-18T12:03:57.411Z,90.60
2022-08-18T12:09:54.050Z,93.90
2022-08-18T12:14:31.724Z,90.70
2022-08-18T12:19:35.925Z,91.00
2022-08-18T12:24:43.152Z,92.30
2022-08-18T12:29:50.875Z,93.00
2022-08-18T12:34:56.599Z,92.10
2022-08-18T12:40:02.229Z,92.90
2022-08-18T12:45:08.793Z,92.60
2022-08-18T12:50:13.811Z,94.00
2022-08-18T12:55:21.355Z,95.40
2022-08-18T13:00:28.808Z,94.70
2022-08-18T13:05:34.901Z,92.10
2022-08-18T13:10:46.641Z,91.60
2022-08-18T13:15:58.004Z,91.00
2022-08-18T13:21:00.314Z,90.50
2022-08-18T13:26:08.758Z,85.50
2022-08-18T13:31:16.463Z,86.20
2022-08-18T13:36:22.531Z,89.30
2022-08-18T13:46:33.257Z,89.20
2022-08-18T13:51:38.931Z,89.40
2022-08-18T13:56:51.659Z,87.10
2022-08-18T14:01:53.619Z,85.40
2022-08-18T14:07:01.211Z,86.40
2022-08-18T14:12:15.363Z,86.40
2022-08-18T14:17:16.976Z,85.40
2022-08-18T14:22:41.368Z,85.80
2022-08-18T14:27:56.219Z,86.20
2022-08-18T14:32:55.185Z,87.50
2022-08-18T14:38:02.968Z,84.80
2022-08-18T14:43:10.106Z,90.60
2022-08-18T14:48:18.612Z,89.10
2022-08-18T14:53:26.606Z,90.20
2022-08-18T14:58:33.370Z,90.80
2022-08-18T15:03:40.199Z,89.60
2022-08-18T15:08:46.881Z,91.20
2022-08-18T15:13:55.060Z,93.10
2022-08-18T15:19:01.896Z,92.50
2022-08-18T15:24:26.834Z,92.90
2022-08-18T15:29:32.329Z,93.40
2022-08-18T15:34:46.466Z,94.10
2022-08-18T15:39:45.850Z,94.30
2022-08-18T15:44:53.792Z,95.40
2022-08-18T15:49:59.507Z,95.20
2022-08-18T15:55:08.244Z,94.60
2022-08-18T16:00:17.893Z,96.20
2022-08-18T16:05:24.291Z,96.40
2022-08-18T16:10:33.441Z,95.80
2022-08-18T16:15:41.823Z,96.60
2022-08-18T16:20:47.646Z,96.10
2022-08-18T16:25:56.006Z,97.00
2022-08-18T16:31:02.779Z,96.60
2022-08-18T16:36:10.866Z,97.80
2022-08-18T16:41:17.465Z,96.80
2022-08-18T16:46:26.461Z,97.10
2022-08-18T16:51:31.860Z,97.40
2022-08-18T16:56:38.519Z,97.40
2022-08-18T17:02:02.139Z,99.30
2022-08-18T17:07:08.402Z,99.20
2022-08-18T17:12:14.358Z,99.10
2022-08-18T17:17:20.255Z,99.50
2022-08-18T17:22:26.173Z,99.50
2022-08-18T17:27:37.683Z,99.90
2022-08-18T17:32:47.143Z,99.90
2022-08-18T17:37:57.968Z,99.90
2022-08-18T17:43:03.865Z,99.90
2022-08-18T17:48:21.031Z,99.90
2022-08-18T17:53:26.560Z,99.90
2022-08-18T17:58:35.515Z,99.90
2022-08-18T18:03:41.031Z,99.90
2022-08-18T18:09:04.201Z,99.90
2022-08-18T18:14:28.616Z,99.90
2022-08-18T18:19:36.735Z,99.90
2022-08-18T18:24:44.992Z,99.90
2022-08-18T18:30:03.984Z,99.90
2022-08-18T18:35:27.583Z,1.00
2022-08-18T18:40:35.341Z,99.90
2022-08-18T18:45:41.626Z,1.00
2022-08-18T18:50:55.694Z,1.00
2022-08-18T18:56:19.494Z,1.00
2022-08-18T19:01:31.697Z,99.90
2022-08-18T19:06:48.557Z,1.00
2022-08-18T19:12:12.204Z,1.00
2022-08-18T19:17:26.033Z,1.00
2022-08-18T19:22:49.704Z,1.00
2022-08-18T19:28:04.262Z,1.00
2022-08-18T19:33:14.641Z,99.90
2022-08-18T19:38:28.303Z,1.00
2022-08-18T19:43:56.258Z,99.90
2022-08-18T19:49:16.779Z,99.90
2022-08-18T19:54:33.916Z,99.90
2022-08-18T19:59:48.570Z,99.90
2022-08-18T20:05:11.445Z,1.00
2022-08-18T20:10:41.835Z,99.90
2022-08-18T20:16:10.935Z,1.00
2022-08-18T20:21:22.571Z,1.00
2022-08-18T20:26:40.335Z,1.00
2022-08-18T20:31:51.870Z,99.90
2022-08-18T20:36:59.101Z,1.00
2022-08-18T20:42:07.931Z,99.90
2022-08-18T20:47:47.603Z,38.00
2022-08-18T20:53:17.756Z,1.00
2022-08-18T20:58:28.217Z,1.00
2022-08-18T21:03:42.100Z,1.00
2022-08-18T21:08:53.651Z,1.00
2022-08-18T21:14:04.280Z,99.90
2022-08-18T21:19:14.906Z,99.90
2022-08-18T21:24:29.022Z,99.90
2022-08-18T21:29:46.976Z,1.00
2022-08-18T21:34:45.349Z,1.00
2022-08-18T21:39:56.520Z,99.90
2022-08-18T21:45:02.506Z,99.90
2022-08-18T21:50:14.809Z,99.90
2022-08-18T21:55:31.753Z,99.90
2022-08-18T22:00:42.820Z,99.90
2022-08-18T22:06:02.370Z,1.00
2022-08-18T22:11:59.840Z,1.00
2022-08-18T22:16:42.075Z,1.00
2022-08-18T22:22:02.077Z,1.00
2022-08-18T22:27:12.403Z,1.00
2022-08-18T22:32:21.632Z,1.00
2022-08-18T22:37:30.024Z,99.90
2022-08-18T22:42:35.964Z,99.90
2022-08-18T22:47:44.837Z,1.00
2022-08-18T22:52:50.708Z,1.00
2022-08-18T22:57:57.181Z,1.00
2022-08-18T23:03:03.273Z,1.00
2022-08-18T23:08:08.490Z,1.00
2022-08-18T23:13:14.124Z,1.00
2022-08-18T23:18:21.932Z,1.00
2022-08-18T23:23:29.048Z,1.80
2022-08-18T23:28:34.878Z,1.00
2022-08-18T23:33:41.787Z,1.00
2022-08-18T23:38:47.701Z,99.90
2022-08-18T23:43:53.543Z,99.90
2022-08-18T23:49:01.572Z,99.90
2022-08-18T23:54:10.259Z,99.90
2022-08-18T23:59:18.056Z,99.90
